sensor_id;sensor_type;location;lat;lon;timestamp;P1;durP1;ratioP1;P2;durP2;ratioP2
6149;SDS011;3106;42.670;23.318;2023-07-31T00:01:17;4.57;;;4.13;;
6149;SDS011;3106;42.670;23.318;2023-07-31T00:03:45;6.03;;;4.60;;
6149;SDS011;3106;42.670;23.318;2023-07-31T00:06:12;6.00;;;4.43;;
6149;SDS011;3106;42.670;23.318;2023-07-31T00:08:38;6.73;;;4.13;;
6149;SDS011;3106;42.670;23.318;2023-07-31T00:11:07;4.60;;;4.17;;
6149;SDS011;3106;42.670;23.318;2023-07-31T00:13:33;5.60;;;4.10;;
6149;SDS011;3106;42.670;23.318;2023-07-31T00:16:00;5.20;;;3.80;;
6149;SDS011;3106;42.670;23.318;2023-07-31T00:18:27;5.30;;;4.30;;
6149;SDS011;3106;42.670;23.318;2023-07-31T00:20:54;4.07;;;3.63;;
6149;SDS011;3106;42.670;23.318;2023-07-31T00:23:21;4.37;;;3.97;;
6149;SDS011;3106;42.670;23.318;2023-07-31T00:25:48;5.90;;;4.70;;
6149;SDS011;3106;42.670;23.318;2023-07-31T00:28:16;9.10;;;5.80;;
6149;SDS011;3106;42.670;23.318;2023-07-31T00:30:43;7.73;;;5.40;;
6149;SDS011;3106;42.670;23.318;2023-07-31T00:33:10;11.87;;;5.77;;
6149;SDS011;3106;42.670;23.318;2023-07-31T00:35:37;6.33;;;5.73;;
6149;SDS011;3106;42.670;23.318;2023-07-31T00:38:04;6.37;;;5.70;;
6149;SDS011;3106;42.670;23.318;2023-07-31T00:40:34;7.87;;;5.70;;
6149;SDS011;3106;42.670;23.318;2023-07-31T00:43:02;7.10;;;5.37;;
6149;SDS011;3106;42.670;23.318;2023-07-31T00:45:30;7.63;;;5.97;;
6149;SDS011;3106;42.670;23.318;2023-07-31T00:47:58;7.13;;;6.10;;
6149;SDS011;3106;42.670;23.318;2023-07-31T00:50:25;8.87;;;6.83;;
6149;SDS011;3106;42.670;23.318;2023-07-31T00:52:54;11.90;;;7.70;;
6149;SDS011;3106;42.670;23.318;2023-07-31T00:55:21;10.83;;;7.47;;
6149;SDS011;3106;42.670;23.318;2023-07-31T00:57:48;8.67;;;7.17;;
6149;SDS011;3106;42.670;23.318;2023-07-31T01:00:17;9.07;;;7.40;;
6149;SDS011;3106;42.670;23.318;2023-07-31T01:02:46;10.10;;;7.40;;
6149;SDS011;3106;42.670;23.318;2023-07-31T01:05:13;10.70;;;8.60;;
6149;SDS011;3106;42.670;23.318;2023-07-31T01:07:42;12.13;;;9.33;;
6149;SDS011;3106;42.670;23.318;2023-07-31T01:10:16;11.57;;;9.70;;
6149;SDS011;3106;42.670;23.318;2023-07-31T01:12:48;12.70;;;10.40;;
6149;SDS011;3106;42.670;23.318;2023-07-31T01:15:16;14.10;;;9.60;;
6149;SDS011;3106;42.670;23.318;2023-07-31T01:17:44;14.07;;;11.27;;
6149;SDS011;3106;42.670;23.318;2023-07-31T01:20:17;14.90;;;11.90;;
6149;SDS011;3106;42.670;23.318;2023-07-31T01:23:08;13.90;;;11.10;;
6149;SDS011;3106;42.670;23.318;2023-07-31T01:26:01;15.77;;;12.67;;
6149;SDS011;3106;42.670;23.318;2023-07-31T01:28:33;15.53;;;11.97;;
6149;SDS011;3106;42.670;23.318;2023-07-31T01:31:14;19.90;;;13.57;;
6149;SDS011;3106;42.670;23.318;2023-07-31T01:33:46;18.90;;;14.43;;
6149;SDS011;3106;42.670;23.318;2023-07-31T01:36:14;19.03;;;14.20;;
6149;SDS011;3106;42.670;23.318;2023-07-31T01:38:41;27.37;;;16.30;;
6149;SDS011;3106;42.670;23.318;2023-07-31T01:41:09;19.53;;;15.63;;
6149;SDS011;3106;42.670;23.318;2023-07-31T01:43:36;24.97;;;18.00;;
6149;SDS011;3106;42.670;23.318;2023-07-31T01:46:03;24.40;;;16.83;;
6149;SDS011;3106;42.670;23.318;2023-07-31T01:48:30;26.47;;;17.43;;
6149;SDS011;3106;42.670;23.318;2023-07-31T01:51:00;26.50;;;19.40;;
6149;SDS011;3106;42.670;23.318;2023-07-31T01:53:28;28.63;;;20.70;;
6149;SDS011;3106;42.670;23.318;2023-07-31T01:55:54;30.00;;;20.20;;
6149;SDS011;3106;42.670;23.318;2023-07-31T01:58:23;26.80;;;20.30;;
6149;SDS011;3106;42.670;23.318;2023-07-31T02:00:49;29.07;;;21.50;;
6149;SDS011;3106;42.670;23.318;2023-07-31T02:03:16;28.47;;;21.50;;
6149;SDS011;3106;42.670;23.318;2023-07-31T02:05:46;31.70;;;22.87;;
6149;SDS011;3106;42.670;23.318;2023-07-31T02:08:13;30.17;;;21.20;;
6149;SDS011;3106;42.670;23.318;2023-07-31T02:10:40;30.10;;;22.53;;
6149;SDS011;3106;42.670;23.318;2023-07-31T02:13:07;29.63;;;21.87;;
6149;SDS011;3106;42.670;23.318;2023-07-31T02:15:36;29.20;;;20.67;;
6149;SDS011;3106;42.670;23.318;2023-07-31T02:18:03;34.40;;;23.10;;
6149;SDS011;3106;42.670;23.318;2023-07-31T02:20:32;30.30;;;21.43;;
6149;SDS011;3106;42.670;23.318;2023-07-31T02:23:00;30.03;;;21.87;;
6149;SDS011;3106;42.670;23.318;2023-07-31T02:25:26;30.40;;;21.00;;
6149;SDS011;3106;42.670;23.318;2023-07-31T02:27:53;32.20;;;21.80;;
6149;SDS011;3106;42.670;23.318;2023-07-31T02:30:20;32.73;;;21.87;;
6149;SDS011;3106;42.670;23.318;2023-07-31T02:32:48;29.17;;;21.50;;
6149;SDS011;3106;42.670;23.318;2023-07-31T02:35:15;32.70;;;23.40;;
6149;SDS011;3106;42.670;23.318;2023-07-31T02:37:43;34.57;;;23.50;;
6149;SDS011;3106;42.670;23.318;2023-07-31T02:40:10;35.10;;;22.40;;
6149;SDS011;3106;42.670;23.318;2023-07-31T02:42:37;26.73;;;20.70;;
6149;SDS011;3106;42.670;23.318;2023-07-31T02:45:05;32.50;;;23.33;;
6149;SDS011;3106;42.670;23.318;2023-07-31T02:47:32;30.77;;;22.97;;
6149;SDS011;3106;42.670;23.318;2023-07-31T02:50:01;36.13;;;22.10;;
6149;SDS011;3106;42.670;23.318;2023-07-31T02:52:27;29.37;;;20.50;;
6149;SDS011;3106;42.670;23.318;2023-07-31T02:54:54;33.10;;;22.53;;
6149;SDS011;3106;42.670;23.318;2023-07-31T02:57:21;31.37;;;22.40;;
6149;SDS011;3106;42.670;23.318;2023-07-31T02:59:48;28.20;;;22.20;;
6149;SDS011;3106;42.670;23.318;2023-07-31T03:02:15;27.90;;;20.53;;
6149;SDS011;3106;42.670;23.318;2023-07-31T03:04:42;30.37;;;20.87;;
6149;SDS011;3106;42.670;23.318;2023-07-31T03:07:10;29.37;;;21.20;;
6149;SDS011;3106;42.670;23.318;2023-07-31T03:09:36;31.60;;;23.00;;
6149;SDS011;3106;42.670;23.318;2023-07-31T03:12:03;27.83;;;21.17;;
6149;SDS011;3106;42.670;23.318;2023-07-31T03:14:31;31.70;;;20.90;;
6149;SDS011;3106;42.670;23.318;2023-07-31T03:16:57;28.27;;;20.37;;
6149;SDS011;3106;42.670;23.318;2023-07-31T03:19:25;33.23;;;22.17;;
6149;SDS011;3106;42.670;23.318;2023-07-31T03:21:52;39.00;;;22.70;;
6149;SDS011;3106;42.670;23.318;2023-07-31T03:24:20;30.23;;;21.33;;
6149;SDS011;3106;42.670;23.318;2023-07-31T03:26:47;33.63;;;20.97;;
6149;SDS011;3106;42.670;23.318;2023-07-31T03:29:14;34.00;;;22.30;;
6149;SDS011;3106;42.670;23.318;2023-07-31T03:31:40;32.10;;;23.00;;
6149;SDS011;3106;42.670;23.318;2023-07-31T03:34:07;31.00;;;22.77;;
6149;SDS011;3106;42.670;23.318;2023-07-31T03:36:34;27.30;;;20.90;;
6149;SDS011;3106;42.670;23.318;2023-07-31T03:39:01;34.97;;;23.90;;
6149;SDS011;3106;42.670;23.318;2023-07-31T03:41:29;35.47;;;23.43;;
6149;SDS011;3106;42.670;23.318;2023-07-31T03:43:56;35.23;;;24.00;;
6149;SDS011;3106;42.670;23.318;2023-07-31T03:46:25;30.43;;;21.97;;
6149;SDS011;3106;42.670;23.318;2023-07-31T03:48:52;34.40;;;22.67;;
6149;SDS011;3106;42.670;23.318;2023-07-31T03:51:19;30.27;;;22.40;;
6149;SDS011;3106;42.670;23.318;2023-07-31T03:53:45;35.73;;;22.40;;
6149;SDS011;3106;42.670;23.318;2023-07-31T03:56:13;29.07;;;20.93;;
6149;SDS011;3106;42.670;23.318;2023-07-31T03:58:41;38.40;;;21.40;;
6149;SDS011;3106;42.670;23.318;2023-07-31T04:01:08;31.60;;;21.70;;
6149;SDS011;3106;42.670;23.318;2023-07-31T04:03:34;34.77;;;24.67;;
6149;SDS011;3106;42.670;23.318;2023-07-31T04:06:01;33.77;;;22.93;;
6149;SDS011;3106;42.670;23.318;2023-07-31T04:08:28;36.13;;;24.20;;
6149;SDS011;3106;42.670;23.318;2023-07-31T04:10:55;33.30;;;23.20;;
6149;SDS011;3106;42.670;23.318;2023-07-31T04:13:22;36.30;;;24.67;;
6149;SDS011;3106;42.670;23.318;2023-07-31T04:15:50;34.83;;;22.57;;
6149;SDS011;3106;42.670;23.318;2023-07-31T04:18:17;36.67;;;24.50;;
6149;SDS011;3106;42.670;23.318;2023-07-31T04:20:44;34.47;;;24.93;;
6149;SDS011;3106;42.670;23.318;2023-07-31T04:23:11;40.10;;;26.53;;
6149;SDS011;3106;42.670;23.318;2023-07-31T04:25:37;38.70;;;24.93;;
6149;SDS011;3106;42.670;23.318;2023-07-31T04:28:04;31.23;;;22.33;;
6149;SDS011;3106;42.670;23.318;2023-07-31T04:30:32;52.70;;;33.10;;
6149;SDS011;3106;42.670;23.318;2023-07-31T04:33:01;35.53;;;23.07;;
6149;SDS011;3106;42.670;23.318;2023-07-31T04:35:28;31.03;;;22.63;;
6149;SDS011;3106;42.670;23.318;2023-07-31T04:37:55;40.50;;;25.40;;
6149;SDS011;3106;42.670;23.318;2023-07-31T04:40:22;29.47;;;20.90;;
6149;SDS011;3106;42.670;23.318;2023-07-31T04:42:49;35.70;;;24.10;;
6149;SDS011;3106;42.670;23.318;2023-07-31T04:45:16;34.00;;;22.70;;
6149;SDS011;3106;42.670;23.318;2023-07-31T04:47:42;38.73;;;22.70;;
6149;SDS011;3106;42.670;23.318;2023-07-31T04:50:11;36.60;;;24.00;;
6149;SDS011;3106;42.670;23.318;2023-07-31T04:52:38;28.00;;;20.53;;
6149;SDS011;3106;42.670;23.318;2023-07-31T04:55:06;30.23;;;21.63;;
6149;SDS011;3106;42.670;23.318;2023-07-31T04:57:33;27.57;;;20.20;;
6149;SDS011;3106;42.670;23.318;2023-07-31T05:00:00;30.60;;;22.13;;
6149;SDS011;3106;42.670;23.318;2023-07-31T05:02:26;34.10;;;21.60;;
6149;SDS011;3106;42.670;23.318;2023-07-31T05:04:53;28.40;;;21.60;;
6149;SDS011;3106;42.670;23.318;2023-07-31T05:07:21;36.67;;;23.87;;
6149;SDS011;3106;42.670;23.318;2023-07-31T05:09:48;29.53;;;20.73;;
6149;SDS011;3106;42.670;23.318;2023-07-31T05:12:15;29.60;;;20.67;;
6149;SDS011;3106;42.670;23.318;2023-07-31T05:14:42;31.40;;;21.93;;
6149;SDS011;3106;42.670;23.318;2023-07-31T05:17:09;28.93;;;20.70;;
6149;SDS011;3106;42.670;23.318;2023-07-31T05:19:36;25.57;;;18.40;;
6149;SDS011;3106;42.670;23.318;2023-07-31T05:22:02;23.90;;;18.47;;
6149;SDS011;3106;42.670;23.318;2023-07-31T05:24:31;25.60;;;18.60;;
6149;SDS011;3106;42.670;23.318;2023-07-31T05:26:58;26.27;;;19.30;;
6149;SDS011;3106;42.670;23.318;2023-07-31T05:29:25;26.80;;;18.33;;
6149;SDS011;3106;42.670;23.318;2023-07-31T05:31:52;23.30;;;17.00;;
6149;SDS011;3106;42.670;23.318;2023-07-31T05:34:19;19.03;;;15.10;;
6149;SDS011;3106;42.670;23.318;2023-07-31T05:36:46;19.73;;;15.07;;
6149;SDS011;3106;42.670;23.318;2023-07-31T05:39:13;27.57;;;19.73;;
6149;SDS011;3106;42.670;23.318;2023-07-31T05:41:41;18.73;;;13.10;;
6149;SDS011;3106;42.670;23.318;2023-07-31T05:44:08;17.27;;;14.90;;
6149;SDS011;3106;42.670;23.318;2023-07-31T05:46:34;18.13;;;11.80;;
6149;SDS011;3106;42.670;23.318;2023-07-31T05:49:01;18.57;;;11.53;;
6149;SDS011;3106;42.670;23.318;2023-07-31T05:51:28;11.80;;;10.27;;
6149;SDS011;3106;42.670;23.318;2023-07-31T05:53:55;13.90;;;10.73;;
6149;SDS011;3106;42.670;23.318;2023-07-31T05:56:22;14.33;;;10.10;;
6149;SDS011;3106;42.670;23.318;2023-07-31T05:58:50;18.57;;;10.90;;
6149;SDS011;3106;42.670;23.318;2023-07-31T06:01:17;11.73;;;10.30;;
6149;SDS011;3106;42.670;23.318;2023-07-31T06:03:44;15.67;;;9.40;;
6149;SDS011;3106;42.670;23.318;2023-07-31T06:06:11;10.17;;;8.37;;
6149;SDS011;3106;42.670;23.318;2023-07-31T06:08:38;11.03;;;8.13;;
6149;SDS011;3106;42.670;23.318;2023-07-31T06:11:06;35.37;;;23.27;;
6149;SDS011;3106;42.670;23.318;2023-07-31T06:13:34;7.47;;;6.70;;
6149;SDS011;3106;42.670;23.318;2023-07-31T06:16:02;6.83;;;6.10;;
6149;SDS011;3106;42.670;23.318;2023-07-31T06:18:30;19.20;;;12.30;;
6149;SDS011;3106;42.670;23.318;2023-07-31T06:20:57;7.13;;;5.53;;
6149;SDS011;3106;42.670;23.318;2023-07-31T06:23:24;6.30;;;5.53;;
6149;SDS011;3106;42.670;23.318;2023-07-31T06:25:51;8.73;;;5.20;;
6149;SDS011;3106;42.670;23.318;2023-07-31T06:28:18;6.17;;;5.17;;
6149;SDS011;3106;42.670;23.318;2023-07-31T06:30:45;7.10;;;5.13;;
6149;SDS011;3106;42.670;23.318;2023-07-31T06:33:13;9.87;;;7.33;;
6149;SDS011;3106;42.670;23.318;2023-07-31T06:35:40;8.13;;;5.00;;
6149;SDS011;3106;42.670;23.318;2023-07-31T06:38:07;7.70;;;5.27;;
6149;SDS011;3106;42.670;23.318;2023-07-31T06:40:34;5.53;;;4.93;;
6149;SDS011;3106;42.670;23.318;2023-07-31T06:43:01;6.60;;;4.70;;
6149;SDS011;3106;42.670;23.318;2023-07-31T06:45:33;5.67;;;5.03;;
6149;SDS011;3106;42.670;23.318;2023-07-31T06:48:00;8.77;;;6.30;;
6149;SDS011;3106;42.670;23.318;2023-07-31T06:50:28;9.70;;;5.40;;
6149;SDS011;3106;42.670;23.318;2023-07-31T06:52:55;7.50;;;5.23;;
6149;SDS011;3106;42.670;23.318;2023-07-31T06:55:23;7.13;;;4.90;;
6149;SDS011;3106;42.670;23.318;2023-07-31T06:57:51;6.10;;;4.87;;
6149;SDS011;3106;42.670;23.318;2023-07-31T07:00:19;16.03;;;7.23;;
6149;SDS011;3106;42.670;23.318;2023-07-31T07:02:47;6.97;;;4.57;;
6149;SDS011;3106;42.670;23.318;2023-07-31T07:05:14;7.03;;;4.20;;
6149;SDS011;3106;42.670;23.318;2023-07-31T07:07:44;5.07;;;4.57;;
6149;SDS011;3106;42.670;23.318;2023-07-31T07:10:11;5.20;;;4.70;;
6149;SDS011;3106;42.670;23.318;2023-07-31T07:12:38;6.70;;;4.33;;
6149;SDS011;3106;42.670;23.318;2023-07-31T07:15:05;7.20;;;4.60;;
6149;SDS011;3106;42.670;23.318;2023-07-31T07:17:32;6.37;;;4.50;;
6149;SDS011;3106;42.670;23.318;2023-07-31T07:19:59;7.77;;;4.33;;
6149;SDS011;3106;42.670;23.318;2023-07-31T07:22:26;5.03;;;4.10;;
6149;SDS011;3106;42.670;23.318;2023-07-31T07:24:55;6.57;;;4.30;;
6149;SDS011;3106;42.670;23.318;2023-07-31T07:27:22;5.90;;;4.20;;
6149;SDS011;3106;42.670;23.318;2023-07-31T07:29:50;8.37;;;4.50;;
6149;SDS011;3106;42.670;23.318;2023-07-31T07:32:17;6.80;;;4.17;;
6149;SDS011;3106;42.670;23.318;2023-07-31T07:34:44;4.30;;;3.83;;
6149;SDS011;3106;42.670;23.318;2023-07-31T07:37:11;7.57;;;4.47;;
6149;SDS011;3106;42.670;23.318;2023-07-31T07:39:38;7.73;;;5.07;;
6149;SDS011;3106;42.670;23.318;2023-07-31T07:42:06;6.17;;;5.23;;
6149;SDS011;3106;42.670;23.318;2023-07-31T07:44:33;8.60;;;4.50;;
6149;SDS011;3106;42.670;23.318;2023-07-31T07:47:00;6.80;;;4.70;;
6149;SDS011;3106;42.670;23.318;2023-07-31T07:49:27;5.40;;;4.30;;
6149;SDS011;3106;42.670;23.318;2023-07-31T07:51:54;5.13;;;4.63;;
6149;SDS011;3106;42.670;23.318;2023-07-31T07:54:20;6.83;;;4.43;;
6149;SDS011;3106;42.670;23.318;2023-07-31T07:56:47;7.03;;;3.70;;
6149;SDS011;3106;42.670;23.318;2023-07-31T07:59:16;5.80;;;3.80;;
6149;SDS011;3106;42.670;23.318;2023-07-31T08:01:43;4.10;;;3.33;;
6149;SDS011;3106;42.670;23.318;2023-07-31T08:04:10;4.10;;;3.67;;
6149;SDS011;3106;42.670;23.318;2023-07-31T08:06:36;4.83;;;4.10;;
6149;SDS011;3106;42.670;23.318;2023-07-31T08:09:03;6.20;;;5.43;;
6149;SDS011;3106;42.670;23.318;2023-07-31T08:11:31;8.60;;;4.20;;
6149;SDS011;3106;42.670;23.318;2023-07-31T08:13:58;9.13;;;4.23;;
6149;SDS011;3106;42.670;23.318;2023-07-31T08:16:26;12.03;;;4.57;;
6149;SDS011;3106;42.670;23.318;2023-07-31T08:18:53;5.60;;;4.17;;
6149;SDS011;3106;42.670;23.318;2023-07-31T08:21:20;5.50;;;4.07;;
6149;SDS011;3106;42.670;23.318;2023-07-31T08:23:47;7.30;;;4.37;;
6149;SDS011;3106;42.670;23.318;2023-07-31T08:26:15;13.50;;;4.90;;
6149;SDS011;3106;42.670;23.318;2023-07-31T08:28:42;5.40;;;4.33;;
6149;SDS011;3106;42.670;23.318;2023-07-31T08:31:09;5.90;;;3.90;;
6149;SDS011;3106;42.670;23.318;2023-07-31T08:33:38;4.60;;;4.17;;
6149;SDS011;3106;42.670;23.318;2023-07-31T08:36:05;7.50;;;3.77;;
6149;SDS011;3106;42.670;23.318;2023-07-31T08:38:32;4.13;;;3.60;;
6149;SDS011;3106;42.670;23.318;2023-07-31T08:40:59;5.20;;;3.90;;
6149;SDS011;3106;42.670;23.318;2023-07-31T08:43:26;5.70;;;4.37;;
6149;SDS011;3106;42.670;23.318;2023-07-31T08:45:54;6.37;;;4.80;;
6149;SDS011;3106;42.670;23.318;2023-07-31T08:48:21;6.70;;;4.27;;
6149;SDS011;3106;42.670;23.318;2023-07-31T08:50:50;11.63;;;4.97;;
6149;SDS011;3106;42.670;23.318;2023-07-31T08:53:18;6.77;;;4.03;;
6149;SDS011;3106;42.670;23.318;2023-07-31T08:55:45;4.87;;;3.63;;
6149;SDS011;3106;42.670;23.318;2023-07-31T08:58:14;5.83;;;4.63;;
6149;SDS011;3106;42.670;23.318;2023-07-31T09:00:41;5.17;;;4.37;;
6149;SDS011;3106;42.670;23.318;2023-07-31T09:03:13;4.47;;;3.80;;
6149;SDS011;3106;42.670;23.318;2023-07-31T09:05:42;11.60;;;8.93;;
6149;SDS011;3106;42.670;23.318;2023-07-31T09:08:11;10.70;;;7.83;;
6149;SDS011;3106;42.670;23.318;2023-07-31T09:10:42;9.53;;;4.80;;
6149;SDS011;3106;42.670;23.318;2023-07-31T09:13:11;7.40;;;3.87;;
6149;SDS011;3106;42.670;23.318;2023-07-31T09:15:38;5.40;;;3.70;;
6149;SDS011;3106;42.670;23.318;2023-07-31T09:18:06;6.27;;;4.03;;
6149;SDS011;3106;42.670;23.318;2023-07-31T09:20:33;45.83;;;35.53;;
6149;SDS011;3106;42.670;23.318;2023-07-31T09:23:07;5.23;;;3.70;;
6149;SDS011;3106;42.670;23.318;2023-07-31T09:25:36;7.60;;;3.93;;
6149;SDS011;3106;42.670;23.318;2023-07-31T09:28:05;4.77;;;4.20;;
6149;SDS011;3106;42.670;23.318;2023-07-31T09:30:43;7.77;;;3.60;;
6149;SDS011;3106;42.670;23.318;2023-07-31T09:33:13;13.27;;;5.07;;
6149;SDS011;3106;42.670;23.318;2023-07-31T09:35:40;4.53;;;3.93;;
6149;SDS011;3106;42.670;23.318;2023-07-31T09:38:09;9.13;;;4.40;;
6149;SDS011;3106;42.670;23.318;2023-07-31T09:40:39;7.40;;;5.00;;
6149;SDS011;3106;42.670;23.318;2023-07-31T09:43:07;7.47;;;4.17;;
6149;SDS011;3106;42.670;23.318;2023-07-31T09:45:36;5.90;;;3.73;;
6149;SDS011;3106;42.670;23.318;2023-07-31T09:48:06;9.10;;;3.30;;
6149;SDS011;3106;42.670;23.318;2023-07-31T09:50:36;5.40;;;3.43;;
6149;SDS011;3106;42.670;23.318;2023-07-31T09:53:04;4.50;;;3.80;;
6149;SDS011;3106;42.670;23.318;2023-07-31T09:55:31;3.80;;;3.40;;
6149;SDS011;3106;42.670;23.318;2023-07-31T09:58:00;12.47;;;3.90;;
6149;SDS011;3106;42.670;23.318;2023-07-31T10:00:30;9.60;;;3.57;;
6149;SDS011;3106;42.670;23.318;2023-07-31T10:02:58;7.47;;;3.67;;
6149;SDS011;3106;42.670;23.318;2023-07-31T10:05:27;8.80;;;3.40;;
6149;SDS011;3106;42.670;23.318;2023-07-31T10:08:00;6.03;;;3.60;;
6149;SDS011;3106;42.670;23.318;2023-07-31T10:10:27;11.33;;;3.10;;
6149;SDS011;3106;42.670;23.318;2023-07-31T10:12:54;5.73;;;3.33;;
6149;SDS011;3106;42.670;23.318;2023-07-31T10:15:33;5.37;;;3.33;;
6149;SDS011;3106;42.670;23.318;2023-07-31T10:18:08;6.83;;;3.67;;
6149;SDS011;3106;42.670;23.318;2023-07-31T10:20:35;4.83;;;2.87;;
6149;SDS011;3106;42.670;23.318;2023-07-31T10:23:02;3.00;;;2.73;;
6149;SDS011;3106;42.670;23.318;2023-07-31T10:25:29;3.57;;;3.23;;
6149;SDS011;3106;42.670;23.318;2023-07-31T10:27:58;4.40;;;3.70;;
6149;SDS011;3106;42.670;23.318;2023-07-31T10:30:27;6.73;;;4.90;;
6149;SDS011;3106;42.670;23.318;2023-07-31T10:32:57;6.13;;;3.57;;
6149;SDS011;3106;42.670;23.318;2023-07-31T10:35:24;5.53;;;3.97;;
6149;SDS011;3106;42.670;23.318;2023-07-31T10:37:51;4.10;;;3.30;;
6149;SDS011;3106;42.670;23.318;2023-07-31T10:40:19;5.30;;;4.00;;
6149;SDS011;3106;42.670;23.318;2023-07-31T10:42:51;3.80;;;2.80;;
6149;SDS011;3106;42.670;23.318;2023-07-31T10:45:31;13.30;;;4.10;;
6149;SDS011;3106;42.670;23.318;2023-07-31T10:47:59;5.43;;;3.47;;
6149;SDS011;3106;42.670;23.318;2023-07-31T10:50:27;3.93;;;2.90;;
6149;SDS011;3106;42.670;23.318;2023-07-31T10:52:57;3.30;;;3.00;;
6149;SDS011;3106;42.670;23.318;2023-07-31T10:55:27;3.83;;;2.60;;
6149;SDS011;3106;42.670;23.318;2023-07-31T10:58:05;3.70;;;3.10;;
6149;SDS011;3106;42.670;23.318;2023-07-31T11:00:36;3.73;;;2.70;;
6149;SDS011;3106;42.670;23.318;2023-07-31T11:03:04;8.70;;;2.90;;
6149;SDS011;3106;42.670;23.318;2023-07-31T11:05:45;2.67;;;2.40;;
6149;SDS011;3106;42.670;23.318;2023-07-31T11:08:17;2.50;;;2.30;;
6149;SDS011;3106;42.670;23.318;2023-07-31T11:10:46;2.77;;;2.57;;
6149;SDS011;3106;42.670;23.318;2023-07-31T11:13:14;5.40;;;3.27;;
6149;SDS011;3106;42.670;23.318;2023-07-31T11:15:42;3.20;;;2.47;;
6149;SDS011;3106;42.670;23.318;2023-07-31T11:18:09;5.80;;;2.97;;
6149;SDS011;3106;42.670;23.318;2023-07-31T11:20:37;7.23;;;2.47;;
6149;SDS011;3106;42.670;23.318;2023-07-31T11:23:06;5.23;;;2.50;;
6149;SDS011;3106;42.670;23.318;2023-07-31T11:25:36;2.73;;;2.53;;
6149;SDS011;3106;42.670;23.318;2023-07-31T11:28:06;4.13;;;2.87;;
6149;SDS011;3106;42.670;23.318;2023-07-31T11:30:35;2.20;;;2.00;;
6149;SDS011;3106;42.670;23.318;2023-07-31T11:33:04;5.70;;;2.90;;
6149;SDS011;3106;42.670;23.318;2023-07-31T11:35:32;4.67;;;3.00;;
6149;SDS011;3106;42.670;23.318;2023-07-31T11:37:59;4.47;;;2.53;;
6149;SDS011;3106;42.670;23.318;2023-07-31T11:40:26;6.33;;;3.13;;
6149;SDS011;3106;42.670;23.318;2023-07-31T11:42:55;3.87;;;2.80;;
6149;SDS011;3106;42.670;23.318;2023-07-31T11:45:24;4.50;;;3.13;;
6149;SDS011;3106;42.670;23.318;2023-07-31T11:47:54;5.63;;;3.50;;
6149;SDS011;3106;42.670;23.318;2023-07-31T11:50:23;6.40;;;3.13;;
6149;SDS011;3106;42.670;23.318;2023-07-31T11:52:52;4.40;;;3.33;;
6149;SDS011;3106;42.670;23.318;2023-07-31T11:55:21;4.63;;;2.77;;
6149;SDS011;3106;42.670;23.318;2023-07-31T11:57:48;7.73;;;3.10;;
6149;SDS011;3106;42.670;23.318;2023-07-31T12:00:17;8.80;;;3.53;;
6149;SDS011;3106;42.670;23.318;2023-07-31T12:02:44;3.63;;;3.27;;
6149;SDS011;3106;42.670;23.318;2023-07-31T12:05:11;5.60;;;3.10;;
6149;SDS011;3106;42.670;23.318;2023-07-31T12:07:49;4.20;;;3.50;;
6149;SDS011;3106;42.670;23.318;2023-07-31T12:10:24;9.60;;;5.20;;
6149;SDS011;3106;42.670;23.318;2023-07-31T12:13:02;5.97;;;4.00;;
6149;SDS011;3106;42.670;23.318;2023-07-31T12:15:32;4.70;;;4.20;;
6149;SDS011;3106;42.670;23.318;2023-07-31T12:18:00;5.37;;;4.80;;
6149;SDS011;3106;42.670;23.318;2023-07-31T12:20:30;6.43;;;4.40;;
6149;SDS011;3106;42.670;23.318;2023-07-31T12:22:58;7.67;;;5.30;;
6149;SDS011;3106;42.670;23.318;2023-07-31T12:25:28;9.90;;;6.67;;
6149;SDS011;3106;42.670;23.318;2023-07-31T12:27:56;11.07;;;8.03;;
6149;SDS011;3106;42.670;23.318;2023-07-31T12:30:26;6.67;;;5.53;;
6149;SDS011;3106;42.670;23.318;2023-07-31T12:32:54;6.30;;;5.70;;
6149;SDS011;3106;42.670;23.318;2023-07-31T12:35:21;6.43;;;5.50;;
6149;SDS011;3106;42.670;23.318;2023-07-31T12:37:47;6.30;;;5.47;;
6149;SDS011;3106;42.670;23.318;2023-07-31T12:40:16;6.67;;;4.83;;
6149;SDS011;3106;42.670;23.318;2023-07-31T12:42:43;5.53;;;4.70;;
6149;SDS011;3106;42.670;23.318;2023-07-31T12:45:09;12.20;;;8.83;;
6149;SDS011;3106;42.670;23.318;2023-07-31T12:47:36;7.20;;;4.90;;
6149;SDS011;3106;42.670;23.318;2023-07-31T12:50:03;12.43;;;10.60;;
6149;SDS011;3106;42.670;23.318;2023-07-31T12:52:31;11.80;;;4.93;;
6149;SDS011;3106;42.670;23.318;2023-07-31T12:54:58;9.20;;;6.17;;
6149;SDS011;3106;42.670;23.318;2023-07-31T12:57:27;6.50;;;5.30;;
6149;SDS011;3106;42.670;23.318;2023-07-31T12:59:53;11.87;;;6.70;;
6149;SDS011;3106;42.670;23.318;2023-07-31T13:02:20;9.23;;;6.77;;
6149;SDS011;3106;42.670;23.318;2023-07-31T13:04:48;9.00;;;8.03;;
6149;SDS011;3106;42.670;23.318;2023-07-31T13:07:16;7.87;;;6.73;;
6149;SDS011;3106;42.670;23.318;2023-07-31T13:09:42;12.20;;;7.97;;
6149;SDS011;3106;42.670;23.318;2023-07-31T13:12:09;6.70;;;5.57;;
6149;SDS011;3106;42.670;23.318;2023-07-31T13:14:38;7.03;;;5.97;;
6149;SDS011;3106;42.670;23.318;2023-07-31T13:17:04;8.63;;;6.23;;
6149;SDS011;3106;42.670;23.318;2023-07-31T13:19:31;13.93;;;6.80;;
6149;SDS011;3106;42.670;23.318;2023-07-31T13:21:58;7.77;;;6.80;;
6149;SDS011;3106;42.670;23.318;2023-07-31T13:24:25;6.70;;;6.00;;
6149;SDS011;3106;42.670;23.318;2023-07-31T13:26:52;5.90;;;5.30;;
6149;SDS011;3106;42.670;23.318;2023-07-31T13:29:19;8.63;;;5.20;;
6149;SDS011;3106;42.670;23.318;2023-07-31T13:31:48;14.30;;;6.07;;
6149;SDS011;3106;42.670;23.318;2023-07-31T13:34:15;8.10;;;5.17;;
6149;SDS011;3106;42.670;23.318;2023-07-31T13:36:42;12.23;;;6.20;;
6149;SDS011;3106;42.670;23.318;2023-07-31T13:39:08;5.83;;;4.77;;
6149;SDS011;3106;42.670;23.318;2023-07-31T13:41:35;6.40;;;4.63;;
6149;SDS011;3106;42.670;23.318;2023-07-31T13:44:03;5.97;;;4.83;;
6149;SDS011;3106;42.670;23.318;2023-07-31T13:46:30;6.00;;;5.20;;
6149;SDS011;3106;42.670;23.318;2023-07-31T13:48:58;8.60;;;4.80;;
6149;SDS011;3106;42.670;23.318;2023-07-31T13:51:26;7.47;;;5.80;;
6149;SDS011;3106;42.670;23.318;2023-07-31T13:53:53;6.03;;;5.20;;
6149;SDS011;3106;42.670;23.318;2023-07-31T13:56:20;6.23;;;4.40;;
6149;SDS011;3106;42.670;23.318;2023-07-31T13:58:47;6.63;;;4.97;;
6149;SDS011;3106;42.670;23.318;2023-07-31T14:01:14;6.63;;;5.00;;
6149;SDS011;3106;42.670;23.318;2023-07-31T14:03:41;4.30;;;3.90;;
6149;SDS011;3106;42.670;23.318;2023-07-31T14:06:09;4.67;;;4.23;;
6149;SDS011;3106;42.670;23.318;2023-07-31T14:08:36;4.57;;;4.00;;
6149;SDS011;3106;42.670;23.318;2023-07-31T14:11:03;7.53;;;4.30;;
6149;SDS011;3106;42.670;23.318;2023-07-31T14:13:29;9.70;;;4.67;;
6149;SDS011;3106;42.670;23.318;2023-07-31T14:15:56;5.27;;;4.40;;
6149;SDS011;3106;42.670;23.318;2023-07-31T14:18:23;5.27;;;4.50;;
6149;SDS011;3106;42.670;23.318;2023-07-31T14:20:50;6.60;;;4.77;;
6149;SDS011;3106;42.670;23.318;2023-07-31T14:23:19;7.83;;;6.03;;
6149;SDS011;3106;42.670;23.318;2023-07-31T14:25:46;8.40;;;6.00;;
6149;SDS011;3106;42.670;23.318;2023-07-31T14:28:12;4.73;;;4.33;;
6149;SDS011;3106;42.670;23.318;2023-07-31T14:30:39;5.53;;;4.93;;
6149;SDS011;3106;42.670;23.318;2023-07-31T14:33:06;7.13;;;4.77;;
6149;SDS011;3106;42.670;23.318;2023-07-31T14:35:33;6.77;;;5.47;;
6149;SDS011;3106;42.670;23.318;2023-07-31T14:38:01;8.17;;;4.33;;
6149;SDS011;3106;42.670;23.318;2023-07-31T14:40:29;9.03;;;6.33;;
6149;SDS011;3106;42.670;23.318;2023-07-31T14:42:56;14.90;;;4.90;;
6149;SDS011;3106;42.670;23.318;2023-07-31T14:45:23;6.03;;;5.23;;
6149;SDS011;3106;42.670;23.318;2023-07-31T14:47:49;7.00;;;5.47;;
6149;SDS011;3106;42.670;23.318;2023-07-31T14:50:16;5.07;;;4.57;;
6149;SDS011;3106;42.670;23.318;2023-07-31T14:52:45;13.67;;;8.30;;
6149;SDS011;3106;42.670;23.318;2023-07-31T14:55:11;14.50;;;5.53;;